Time;durP1;ratioP1;P1;durP2;ratioP2;P2;SDS_P1;SDS_P2;PMS_P1;PMS_P2;Temp;Humidity;BMP_temperature;BMP_pressure;BME280_temperature;BME280_humidity;BME280_pressure;Samples;Min_cycle;Max_cycle;Signal;HPM_P1;HPM_P2
2023/03/18 00:00:27;;;;;;;0.77;0.77;;;2.30;99.90;;;;;;5100482;28;20265;-76
2023/03/18 00:02:55;;;;;;;0.20;0.20;;;;;;;;;;5090432;28;20056;-76
2023/03/18 00:05:21;;;;;;;0.20;0.20;;;2.00;99.90;;;;;;5102322;28;20520;-76
2023/03/18 00:07:49;;;;;;;0.15;0.15;;;;;;;;;;5098016;28;20024;-76
2023/03/18 00:10:15;;;;;;;0.43;0.43;;;;;;;;;;5099309;28;20035;-76
2023/03/18 00:12:42;;;;;;;0.20;0.20;;;1.90;99.90;;;;;;5079092;28;20043;-80
2023/03/18 00:15:11;;;;;;;0.17;0.17;;;1.90;99.90;;;;;;5100974;28;20111;-77
2023/03/18 00:17:39;;;;;;;0.15;0.15;;;;;;;;;;5103858;28;20052;-77
2023/03/18 00:20:37;;;;;;;0.20;0.20;;;1.10;99.90;;;;;;5104363;28;20016;-78
2023/03/18 00:23:04;;;;;;;0.20;0.20;;;1.80;99.90;;;;;;5069623;28;20096;-77
2023/03/18 00:25:30;;;;;;;0.20;0.20;;;2.10;99.90;;;;;;5086801;28;20039;-76
2023/03/18 00:27:56;;;;;;;0.20;0.20;;;2.10;99.90;;;;;;5081199;28;20213;-76
2023/03/18 00:30:22;;;;;;;0.52;0.50;;;2.10;99.90;;;;;;5082255;28;20024;-76
2023/03/18 00:32:48;;;;;;;0.20;0.20;;;;;;;;;;5080714;28;20048;-76
2023/03/18 00:35:16;;;;;;;0.20;0.20;;;1.90;99.90;;;;;;5083110;28;20087;-76
2023/03/18 00:37:42;;;;;;;0.13;0.13;;;;;;;;;;5063786;28;20075;-76
2023/03/18 00:40:16;;;;;;;0.20;0.20;;;1.80;99.90;;;;;;5089628;28;20069;-77
2023/03/18 00:42:46;;;;;;;0.32;0.32;;;2.00;99.90;;;;;;5094342;28;20032;-77
2023/03/18 00:45:14;;;;;;;0.20;0.20;;;2.00;99.90;;;;;;5073851;28;20343;-76
2023/03/18 00:47:42;;;;;;;0.30;0.30;;;1.90;99.90;;;;;;5089960;28;20301;-77
2023/03/18 00:50:12;;;;;;;0.20;0.20;;;1.80;99.90;;;;;;5094859;28;20102;-76
2023/03/18 00:52:39;;;;;;;0.20;0.20;;;1.80;99.90;;;;;;5089145;28;20506;-75
2023/03/18 00:55:06;;;;;;;0.10;0.10;;;1.70;99.90;;;;;;5091570;28;20111;-76
2023/03/18 00:57:32;;;;;;;0.20;0.20;;;1.70;99.90;;;;;;5091109;28;20040;-76
2023/03/18 00:59:58;;;;;;;0.20;0.20;;;1.70;99.90;;;;;;5092119;28;20020;-75
2023/03/18 01:02:24;;;;;;;0.20;0.20;;;1.70;99.90;;;;;;5093093;28;20027;-75
2023/03/18 01:04:50;;;;;;;0.15;0.15;;;1.60;99.90;;;;;;5093759;28;20028;-76
2023/03/18 01:07:18;;;;;;;1.20;1.20;;;1.60;99.90;;;;;;5093649;28;20016;-75
2023/03/18 01:09:44;;;;;;;0.20;0.20;;;1.50;99.90;;;;;;5089492;28;20034;-75
2023/03/18 01:12:11;;;;;;;0.10;0.10;;;1.10;99.90;;;;;;5081707;28;20036;-75
2023/03/18 01:14:38;;;;;;;0.10;0.10;;;1.50;99.90;;;;;;5081886;28;20395;-76
2023/03/18 01:17:06;;;;;;;0.10;0.10;;;1.40;99.90;;;;;;5082202;28;20036;-76
2023/03/18 01:19:32;;;;;;;0.20;0.20;;;1.40;99.90;;;;;;5083599;28;20047;-76
2023/03/18 01:21:59;;;;;;;0.25;0.25;;;1.40;99.90;;;;;;5082833;28;20506;-75
2023/03/18 01:24:26;;;;;;;0.30;0.30;;;1.40;99.90;;;;;;5083216;28;20035;-75
2023/03/18 01:26:52;;;;;;;0.20;0.20;;;1.40;99.90;;;;;;5082877;28;20055;-76
2023/03/18 01:29:19;;;;;;;0.20;0.20;;;1.40;99.90;;;;;;5089084;28;20036;-76
2023/03/18 01:31:51;;;;;;;0.20;0.20;;;1.30;99.90;;;;;;5069125;28;20024;-75
2023/03/18 01:34:17;;;;;;;0.17;0.17;;;1.30;99.90;;;;;;5088212;28;20076;-75
2023/03/18 01:36:42;;;;;;;0.20;0.20;;;1.30;99.90;;;;;;5087272;28;20356;-76
2023/03/18 01:39:09;;;;;;;0.20;0.20;;;1.20;99.90;;;;;;5085839;28;20024;-76
2023/03/18 01:41:35;;;;;;;0.20;0.20;;;1.20;99.90;;;;;;5084202;28;20174;-76
2023/03/18 01:44:03;;;;;;;0.20;0.20;;;1.20;99.90;;;;;;5084909;28;20024;-76
2023/03/18 01:46:41;;;;;;;0.20;0.20;;;1.80;99.90;;;;;;5086199;28;20236;-76
2023/03/18 01:49:16;;;;;;;0.20;0.20;;;1.20;99.90;;;;;;5086330;28;20020;-75
2023/03/18 01:51:49;;;;;;;60.93;13.03;;;1.20;99.90;;;;;;5085116;28;20028;-76
2023/03/18 01:54:15;;;;;;;1.90;1.90;;;1.20;99.90;;;;;;5084668;28;20036;-76
2023/03/18 01:56:43;;;;;;;0.20;0.20;;;1.40;99.90;;;;;;5086554;28;20055;-75
2023/03/18 01:59:10;;;;;;;0.20;0.20;;;1.20;99.90;;;;;;5085584;28;20434;-76
2023/03/18 02:02:03;;;;;;;0.20;0.20;;;1.10;99.90;;;;;;5084076;28;20070;-76
2023/03/18 02:04:36;;;;;;;0.20;0.20;;;1.20;99.90;;;;;;5085195;28;20324;-76
2023/03/18 02:07:02;;;;;;;0.20;0.20;;;1.20;99.90;;;;;;5084686;28;20025;-76
2023/03/18 02:09:29;;;;;;;0.20;0.20;;;;;;;;;;5085137;28;20024;-75
2023/03/18 02:11:56;;;;;;;0.20;0.20;;;;;;;;;;5086745;28;20020;-76
2023/03/18 02:14:25;;;;;;;0.20;0.20;;;1.10;99.90;;;;;;5087026;28;20020;-76
2023/03/18 02:16:58;;;;;;;0.20;0.20;;;1.20;99.90;;;;;;5085653;28;20268;-75
2023/03/18 02:19:53;;;;;;;0.20;0.20;;;1.40;99.90;;;;;;5085329;28;20066;-75
2023/03/18 02:22:51;;;;;;;0.20;0.20;;;1.40;99.90;;;;;;5023720;28;20056;-75
2023/03/18 02:25:44;;;;;;;0.27;0.27;;;1.20;99.90;;;;;;4982620;28;20062;-75
2023/03/18 02:28:15;;;;;;;0.20;0.20;;;1.20;99.90;;;;;;4968093;28;20644;-75
2023/03/18 02:30:45;;;;;;;0.20;0.20;;;1.20;99.90;;;;;;4982289;28;20045;-76
2023/03/18 02:33:13;;;;;;;0.20;0.20;;;1.20;99.90;;;;;;4982587;28;20377;-75
2023/03/18 02:35:41;;;;;;;0.20;0.20;;;1.20;99.90;;;;;;4983626;28;20054;-75
2023/03/18 02:38:07;;;;;;;0.20;0.20;;;1.20;99.90;;;;;;4983154;28;20078;-76
2023/03/18 02:40:37;;;;;;;57.00;41.40;;;1.20;99.90;;;;;;4985431;28;20581;-75
2023/03/18 02:43:25;;;;;;;0.20;0.20;;;1.20;99.90;;;;;;4991086;28;20022;-75
2023/03/18 02:46:38;;;;;;;0.20;0.20;;;1.30;99.90;;;;;;4992363;28;20050;-75
2023/03/18 02:49:06;;;;;;;0.20;0.20;;;1.30;99.90;;;;;;4931619;29;20036;-75
2023/03/18 02:51:35;;;;;;;0.20;0.20;;;1.30;99.90;;;;;;4916366;29;20283;-76
2023/03/18 02:54:17;;;;;;;0.30;0.30;;;1.30;99.90;;;;;;4936013;29;20042;-78
2023/03/18 02:56:44;;;;;;;0.17;0.17;;;1.00;99.90;;;;;;4927837;29;20050;-76
2023/03/18 02:59:11;;;;;;;0.20;0.20;;;1.20;99.90;;;;;;4934089;29;20238;-76
2023/03/18 03:01:38;;;;;;;0.20;0.20;;;1.20;99.90;;;;;;4991383;28;20127;-75
2023/03/18 03:04:06;;;;;;;0.20;0.20;;;1.30;99.90;;;;;;5002200;28;20034;-76
2023/03/18 03:06:33;;;;;;;0.17;0.17;;;1.10;99.90;;;;;;5002595;28;20218;-75
2023/03/18 03:08:59;;;;;;;0.20;0.20;;;1.10;99.90;;;;;;5002442;28;20572;-75
2023/03/18 03:11:27;;;;;;;0.13;0.13;;;1.10;99.90;;;;;;5006483;28;20504;-76
2023/03/18 03:13:53;;;;;;;0.20;0.20;;;1.10;99.90;;;;;;5007038;28;20279;-74
2023/03/18 03:16:19;;;;;;;0.10;0.10;;;1.00;99.90;;;;;;5012642;28;20022;-74
2023/03/18 03:18:45;;;;;;;10.93;10.35;;;0.90;99.90;;;;;;5012979;28;20100;-74
2023/03/18 03:21:13;;;;;;;0.20;0.20;;;0.90;99.90;;;;;;5016278;28;20030;-75
2023/03/18 03:23:40;;;;;;;0.20;0.20;;;0.80;99.90;;;;;;4998233;28;20037;-74
2023/03/18 03:26:06;;;;;;;0.20;0.20;;;0.80;99.90;;;;;;5061863;28;20044;-74
2023/03/18 03:28:32;;;;;;;0.20;0.20;;;0.70;99.90;;;;;;5100210;28;20016;-74
2023/03/18 03:30:59;;;;;;;0.20;0.20;;;0.70;99.90;;;;;;5079164;28;20446;-74
2023/03/18 03:33:25;;;;;;;0.17;0.17;;;0.40;99.90;;;;;;5098242;28;20465;-74
2023/03/18 03:35:51;;;;;;;0.20;0.20;;;0.70;99.90;;;;;;5080099;28;20031;-74
2023/03/18 03:38:17;;;;;;;0.20;0.20;;;0.60;99.90;;;;;;5098257;28;20051;-74
2023/03/18 03:40:45;;;;;;;0.20;0.20;;;0.60;99.90;;;;;;5094168;28;20255;-74
2023/03/18 03:43:14;;;;;;;0.20;0.20;;;0.70;99.90;;;;;;5084477;28;20522;-74
2023/03/18 03:45:41;;;;;;;0.20;0.20;;;0.60;99.90;;;;;;5083509;28;20043;-74
2023/03/18 03:48:07;;;;;;;0.20;0.20;;;0.60;99.90;;;;;;5082937;28;20020;-74
2023/03/18 03:50:34;;;;;;;1.90;1.90;;;0.60;99.90;;;;;;5082432;28;20126;-77
2023/03/18 03:53:01;;;;;;;0.20;0.20;;;0.60;99.90;;;;;;5082884;28;20040;-76
2023/03/18 03:55:28;;;;;;;0.13;0.13;;;0.70;99.90;;;;;;5084088;28;20050;-74
2023/03/18 03:57:55;;;;;;;0.20;0.20;;;;;;;;;;5065602;28;20032;-74
2023/03/18 04:00:22;;;;;;;0.20;0.20;;;0.80;99.90;;;;;;5086115;28;20019;-74
2023/03/18 04:02:49;;;;;;;2.93;2.83;;;0.80;99.90;;;;;;5085105;28;20039;-74
2023/03/18 04:05:17;;;;;;;0.20;0.20;;;0.70;99.90;;;;;;5083002;28;20024;-74
2023/03/18 04:07:44;;;;;;;0.20;0.20;;;0.70;99.90;;;;;;5064581;28;20534;-74
2023/03/18 04:10:19;;;;;;;2.87;2.63;;;1.00;99.90;;;;;;5084349;28;20387;-74
2023/03/18 04:12:45;;;;;;;0.20;0.20;;;;;;;;;;5082824;28;20460;-75
2023/03/18 04:15:13;;;;;;;0.20;0.20;;;0.80;99.90;;;;;;5099612;28;20045;-74
2023/03/18 04:17:40;;;;;;;0.20;0.20;;;0.80;99.90;;;;;;5102306;28;20050;-74
2023/03/18 04:20:06;;;;;;;0.10;0.10;;;1.10;99.90;;;;;;5075710;28;20024;-74
2023/03/18 04:22:33;;;;;;;0.20;0.20;;;0.80;99.90;;;;;;5091475;28;20047;-75
2023/03/18 04:25:00;;;;;;;0.20;0.20;;;1.30;99.90;;;;;;5092263;28;20020;-74
2023/03/18 04:27:27;;;;;;;0.93;0.93;;;;;;;;;;5084684;28;20435;-74
2023/03/18 04:29:53;;;;;;;0.20;0.20;;;0.80;99.90;;;;;;5083911;28;20233;-74
2023/03/18 04:32:19;;;;;;;0.20;0.20;;;0.60;99.90;;;;;;5081860;28;20509;-74
2023/03/18 04:34:45;;;;;;;2.73;2.63;;;0.60;99.90;;;;;;5083090;28;20091;-75
2023/03/18 04:37:13;;;;;;;0.20;0.20;;;0.50;99.90;;;;;;5082885;28;20125;-74
2023/03/18 04:39:40;;;;;;;0.20;0.20;;;0.40;99.90;;;;;;5084057;28;20624;-74
2023/03/18 04:42:06;;;;;;;0.20;0.20;;;0.40;99.90;;;;;;5083996;28;20030;-74
2023/03/18 04:44:32;;;;;;;0.20;0.20;;;;;;;;;;5082645;28;20099;-75
2023/03/18 04:46:58;;;;;;;0.20;0.20;;;-0.50;99.90;;;;;;5082652;28;20024;-77
2023/03/18 04:49:25;;;;;;;0.20;0.20;;;0.30;99.90;;;;;;5082195;28;20213;-74
2023/03/18 04:51:51;;;;;;;0.10;0.10;;;0.10;99.90;;;;;;5084153;28;20521;-74
2023/03/18 04:54:17;;;;;;;0.23;0.23;;;0.30;99.90;;;;;;5083101;28;20020;-74
2023/03/18 04:56:43;;;;;;;0.20;0.20;;;0.30;99.90;;;;;;5065832;28;20419;-75
2023/03/18 04:59:09;;;;;;;0.20;0.20;;;0.10;99.90;;;;;;5068537;28;20032;-75
2023/03/18 05:01:36;;;;;;;0.20;0.20;;;0.30;99.90;;;;;;5086564;28;20463;-75
2023/03/18 05:04:03;;;;;;;0.10;0.10;;;;;;;;;;5086399;28;20048;-75
2023/03/18 05:06:30;;;;;;;0.10;0.10;;;0.30;99.90;;;;;;5088269;28;20559;-75
2023/03/18 05:08:57;;;;;;;0.87;0.87;;;0.40;99.90;;;;;;5089242;28;20529;-74
2023/03/18 05:11:30;;;;;;;0.20;0.20;;;0.50;99.90;;;;;;5093130;28;20031;-77
2023/03/18 05:14:00;;;;;;;39.57;27.07;;;0.50;99.90;;;;;;5103189;28;20024;-77
2023/03/18 05:16:26;;;;;;;0.20;0.20;;;;;;;;;;5103253;28;20028;-76
2023/03/18 05:18:52;;;;;;;0.10;0.10;;;;;;;;;;5085998;28;20025;-77
2023/03/18 05:21:19;;;;;;;0.20;0.20;;;;;;;;;;5102264;28;20103;-77
2023/03/18 05:24:04;;;;;;;11.10;10.73;;;0.50;99.90;;;;;;5100446;28;20096;-76
2023/03/18 05:26:31;;;;;;;0.20;0.20;;;;;;;;;;5081552;28;20032;-77
2023/03/18 05:28:58;;;;;;;0.20;0.20;;;;;;;;;;5104508;28;20039;-78
2023/03/18 05:31:29;;;;;;;0.20;0.20;;;0.60;99.90;;;;;;5084454;28;20028;-77
2023/03/18 05:33:57;;;;;;;0.20;0.20;;;0.50;99.90;;;;;;5102176;28;20467;-77
2023/03/18 05:36:23;;;;;;;0.17;0.17;;;0.50;99.90;;;;;;5097648;28;20049;-77
2023/03/18 05:38:49;;;;;;;7.03;6.73;;;0.60;99.90;;;;;;5095099;28;20044;-77
2023/03/18 05:41:15;;;;;;;0.20;0.20;;;;;;;;;;5094457;28;20024;-77
2023/03/18 05:43:41;;;;;;;0.20;0.20;;;0.60;99.90;;;;;;5095333;28;20456;-76
2023/03/18 05:46:07;;;;;;;0.20;0.20;;;0.70;99.90;;;;;;5076496;28;20042;-76
2023/03/18 05:48:33;;;;;;;0.20;0.20;;;;;;;;;;5094423;28;20024;-76
2023/03/18 05:50:59;;;;;;;0.20;0.20;;;0.70;99.90;;;;;;5091863;28;20111;-77
2023/03/18 05:53:25;;;;;;;0.10;0.10;;;;;;;;;;5092455;28;20051;-76
2023/03/18 05:55:51;;;;;;;0.20;0.20;;;;;;;;;;5090687;28;20035;-77
2023/03/18 05:58:17;;;;;;;0.30;0.30;;;0.70;99.90;;;;;;5089835;28;20048;-77
2023/03/18 06:00:44;;;;;;;0.20;0.20;;;1.20;99.90;;;;;;5085537;28;20355;-79
2023/03/18 06:03:10;;;;;;;0.20;0.20;;;;;;;;;;5061826;28;20032;-75
2023/03/18 06:05:36;;;;;;;0.20;0.20;;;0.70;99.90;;;;;;5080135;28;20226;-75
2023/03/18 06:08:04;;;;;;;0.20;0.20;;;1.00;99.90;;;;;;5046230;28;20557;-76
2023/03/18 06:10:31;;;;;;;0.20;0.20;;;0.90;99.90;;;;;;5065326;28;20029;-76
2023/03/18 06:12:56;;;;;;;0.20;0.20;;;1.00;99.90;;;;;;5064278;28;20024;-75
2023/03/18 06:15:23;;;;;;;0.20;0.20;;;0.50;99.90;;;;;;5065813;28;20635;-76
2023/03/18 06:17:49;;;;;;;0.20;0.20;;;1.10;99.90;;;;;;5085484;28;20027;-76
2023/03/18 06:20:17;;;;;;;0.63;0.63;;;1.20;99.90;;;;;;5086096;28;20017;-74
2023/03/18 06:22:47;;;;;;;0.33;0.33;;;1.30;99.90;;;;;;5067312;28;20573;-74
2023/03/18 06:25:14;;;;;;;0.20;0.20;;;1.50;99.90;;;;;;5087469;28;20016;-76
2023/03/18 06:27:40;;;;;;;0.10;0.10;;;1.50;99.90;;;;;;5086936;28;20024;-76
2023/03/18 06:30:07;;;;;;;0.20;0.20;;;1.70;99.90;;;;;;5070179;28;20493;-76
2023/03/18 06:32:34;;;;;;;0.20;0.20;;;1.80;99.90;;;;;;5093177;28;20032;-74
2023/03/18 06:35:00;;;;;;;1.27;1.27;;;1.90;99.90;;;;;;5093264;28;20071;-76
2023/03/18 06:37:27;;;;;;;0.82;0.80;;;2.00;99.90;;;;;;5092389;28;20302;-77
2023/03/18 06:39:53;;;;;;;0.20;0.20;;;;;;;;;;5089834;28;20023;-76
2023/03/18 06:42:19;;;;;;;0.20;0.20;;;2.10;99.90;;;;;;5086940;28;20106;-76
2023/03/18 06:44:49;;;;;;;0.20;0.20;;;2.30;99.90;;;;;;5087903;28;20331;-76
2023/03/18 06:47:30;;;;;;;0.25;0.25;;;2.30;99.90;;;;;;5105604;28;20035;-77
2023/03/18 06:50:00;;;;;;;0.20;0.20;;;0.00;99.90;;;;;;5066318;28;20036;-77
2023/03/18 06:52:27;;;;;;;0.20;0.20;;;2.20;99.90;;;;;;5079532;28;20036;-77
2023/03/18 06:54:53;;;;;;;0.25;0.25;;;2.20;99.90;;;;;;5098113;28;20107;-76
2023/03/18 06:57:19;;;;;;;0.28;0.28;;;2.70;99.90;;;;;;5100823;28;20035;-77
2023/03/18 06:59:54;;;;;;;0.20;0.20;;;2.60;99.90;;;;;;5083656;28;20016;-78
2023/03/18 07:02:24;;;;;;;0.20;0.20;;;;;;;;;;5083893;28;20020;-76
2023/03/18 07:04:50;;;;;;;1.48;1.48;;;2.80;99.90;;;;;;5098450;28;20016;-80
2023/03/18 07:07:20;;;;;;;0.45;0.45;;;2.80;99.90;;;;;;5097993;28;20051;-76
2023/03/18 07:09:48;;;;;;;0.20;0.20;;;3.00;99.90;;;;;;5076225;28;20491;-76
2023/03/18 07:12:15;;;;;;;9.60;9.18;;;3.20;99.90;;;;;;5092506;28;20043;-77
2023/03/18 07:14:44;;;;;;;0.10;0.10;;;2.20;99.90;;;;;;5095444;28;20579;-76
2023/03/18 07:17:11;;;;;;;0.52;0.52;;;3.50;99.90;;;;;;5087556;28;20561;-77
2023/03/18 07:19:40;;;;;;;0.30;0.30;;;3.80;99.90;;;;;;5087964;28;20020;-77
2023/03/18 07:22:06;;;;;;;0.30;0.30;;;;;;;;;;5084827;28;20289;-77
2023/03/18 07:24:33;;;;;;;0.10;0.10;;;;;;;;;;5083816;28;20029;-77
2023/03/18 07:27:00;;;;;;;1.00;1.00;;;4.00;99.90;;;;;;5063582;28;20048;-76
2023/03/18 07:29:26;;;;;;;0.20;0.20;;;;;;;;;;5064784;28;20020;-76
2023/03/18 07:31:52;;;;;;;11.80;11.05;;;;;;;;;;5082408;28;20020;-76
2023/03/18 07:34:20;;;;;;;0.10;0.10;;;4.50;99.90;;;;;;5065026;28;20032;-76
2023/03/18 07:36:51;;;;;;;0.88;0.88;;;4.70;99.90;;;;;;5080693;28;20036;-76
2023/03/18 07:39:17;;;;;;;0.10;0.10;;;1.80;99.90;;;;;;5081986;28;20032;-76
2023/03/18 07:41:48;;;;;;;0.15;0.15;;;4.80;99.90;;;;;;5082325;28;20034;-76
2023/03/18 07:44:14;;;;;;;0.65;0.65;;;;;;;;;;5083289;28;20032;-76
2023/03/18 07:46:40;;;;;;;0.10;0.10;;;5.00;99.90;;;;;;5081613;28;20250;-76
2023/03/18 07:49:11;;;;;;;9.60;5.72;;;4.20;99.90;;;;;;5082515;28;20032;-76
2023/03/18 07:51:37;;;;;;;0.10;0.10;;;6.60;99.90;;;;;;5082309;28;20052;-76
2023/03/18 07:54:04;;;;;;;0.10;0.10;;;5.50;99.90;;;;;;5083086;28;20527;-76
2023/03/18 07:56:30;;;;;;;0.10;0.10;;;5.50;99.90;;;;;;5084082;28;20051;-76
2023/03/18 07:58:56;;;;;;;0.63;0.63;;;5.50;99.90;;;;;;5066496;28;20024;-78
2023/03/18 08:01:21;;;;;;;0.10;0.10;;;5.60;99.90;;;;;;5082310;28;20241;-76
2023/03/18 08:03:47;;;;;;;0.10;0.10;;;5.70;99.90;;;;;;5083031;28;20016;-76
2023/03/18 08:06:14;;;;;;;12.05;11.60;;;5.70;99.90;;;;;;5082189;28;20046;-76
2023/03/18 08:08:42;;;;;;;0.10;0.10;;;6.00;99.90;;;;;;5081133;28;20498;-76
2023/03/18 08:11:08;;;;;;;0.25;0.25;;;6.00;99.90;;;;;;5081010;28;20024;-77
2023/03/18 08:13:35;;;;;;;0.10;0.10;;;6.10;99.90;;;;;;5063289;28;20040;-76
2023/03/18 08:16:02;;;;;;;0.10;0.10;;;6.20;99.90;;;;;;5082118;28;20016;-76
2023/03/18 08:18:28;;;;;;;0.75;0.75;;;6.30;99.90;;;;;;5083483;28;20032;-76
2023/03/18 08:20:54;;;;;;;0.15;0.15;;;6.40;99.90;;;;;;5083336;28;20522;-76
2023/03/18 08:23:20;;;;;;;0.13;0.13;;;6.60;99.90;;;;;;5083959;28;20023;-76
2023/03/18 08:25:49;;;;;;;0.10;0.10;;;6.80;99.90;;;;;;5083330;28;20308;-76
2023/03/18 08:28:16;;;;;;;0.10;0.10;;;6.80;99.90;;;;;;5083463;28;20020;-76
2023/03/18 08:30:46;;;;;;;0.08;0.08;;;7.10;99.90;;;;;;5081411;28;20031;-76
2023/03/18 08:33:12;;;;;;;0.00;0.00;;;7.20;98.90;;;;;;5081252;28;20036;-76
2023/03/18 08:35:42;;;;;;;0.00;0.00;;;7.20;98.40;;;;;;5081728;28;20020;-76
2023/03/18 08:38:08;;;;;;;0.03;0.03;;;7.80;95.80;;;;;;5081677;28;20044;-76
2023/03/18 08:40:34;;;;;;;0.00;0.00;;;8.10;95.10;;;;;;5082552;28;20030;-76
2023/03/18 08:43:00;;;;;;;0.00;0.00;;;7.90;94.20;;;;;;5081560;28;20069;-76
2023/03/18 08:45:27;;;;;;;0.85;0.85;;;7.90;91.90;;;;;;5081950;28;20323;-76
2023/03/18 08:47:55;;;;;;;0.00;0.00;;;8.50;93.80;;;;;;5070943;28;20548;-76
2023/03/18 08:50:21;;;;;;;0.10;0.10;;;8.40;92.10;;;;;;5088035;28;20028;-77
2023/03/18 08:52:47;;;;;;;0.10;0.10;;;8.10;90.80;;;;;;5086335;28;20138;-76
2023/03/18 08:55:13;;;;;;;0.00;0.00;;;;;;;;;;5088103;28;20072;-76
2023/03/18 08:57:39;;;;;;;0.50;0.50;;;8.40;87.10;;;;;;5090759;28;20047;-76
2023/03/18 09:00:07;;;;;;;14.73;13.48;;;8.40;88.30;;;;;;5089447;28;20087;-76
2023/03/18 09:02:35;;;;;;;0.00;0.00;;;8.70;87.40;;;;;;5086990;28;20027;-76
2023/03/18 09:05:01;;;;;;;0.00;0.00;;;8.80;85.00;;;;;;5088122;28;20028;-76
2023/03/18 09:07:27;;;;;;;0.00;0.00;;;9.10;83.90;;;;;;5086508;28;20035;-76
2023/03/18 09:09:53;;;;;;;0.05;0.05;;;9.10;82.20;;;;;;5086000;28;20016;-76
2023/03/18 09:12:19;;;;;;;0.22;0.22;;;9.20;81.80;;;;;;5086979;28;20028;-76
2023/03/18 09:14:48;;;;;;;0.03;0.03;;;9.30;79.50;;;;;;5087224;28;20048;-77
2023/03/18 09:17:14;;;;;;;0.43;0.43;;;9.40;81.10;;;;;;5068834;28;20313;-76
2023/03/18 09:19:40;;;;;;;0.00;0.00;;;9.60;81.90;;;;;;5084204;28;20020;-76
2023/03/18 09:22:07;;;;;;;3.08;2.83;;;9.80;81.00;;;;;;5086245;28;20116;-76
2023/03/18 09:24:33;;;;;;;0.10;0.10;;;10.00;79.90;;;;;;5067732;28;20078;-77
2023/03/18 09:26:59;;;;;;;0.10;0.10;;;10.30;78.80;;;;;;5081832;28;20696;-77
2023/03/18 09:29:26;;;;;;;0.10;0.10;;;10.40;79.90;;;;;;5062826;28;20087;-76
2023/03/18 09:31:52;;;;;;;1.15;1.15;;;10.60;80.90;;;;;;5082489;28;20043;-76
2023/03/18 09:34:18;;;;;;;0.10;0.10;;;10.80;78.60;;;;;;5082587;28;20039;-76
2023/03/18 09:36:49;;;;;;;0.10;0.10;;;11.00;77.90;;;;;;5082210;28;20020;-76
2023/03/18 09:39:17;;;;;;;0.10;0.10;;;11.10;74.10;;;;;;5082764;28;20025;-76
2023/03/18 09:42:08;;;;;;;0.10;0.10;;;11.30;73.60;;;;;;5083040;28;20020;-76
2023/03/18 09:44:35;;;;;;;0.08;0.08;;;11.30;74.90;;;;;;5082593;28;20030;-78
2023/03/18 09:47:41;;;;;;;0.65;0.65;;;10.90;74.30;;;;;;5082375;28;20035;-76
2023/03/18 09:50:20;;;;;;;0.10;0.10;;;11.20;76.80;;;;;;5088877;28;20038;-77
2023/03/18 09:53:31;;;;;;;0.38;0.38;;;10.30;74.80;;;;;;5086163;28;20096;-77
2023/03/18 09:56:00;;;;;;;0.10;0.10;;;11.40;74.60;;;;;;5041757;28;20041;-79
2023/03/18 09:59:02;;;;;;;0.10;0.10;;;11.60;71.50;;;;;;5040908;28;20037;-77
2023/03/18 10:01:33;;;;;;;0.10;0.10;;;11.80;70.20;;;;;;5038501;28;20345;-77
2023/03/18 10:04:12;;;;;;;0.10;0.10;;;11.90;70.00;;;;;;5038156;28;20053;-77
2023/03/18 10:06:41;;;;;;;0.20;0.20;;;12.00;69.80;;;;;;5036992;28;20547;-76
2023/03/18 10:09:13;;;;;;;0.10;0.10;;;12.30;69.20;;;;;;5038150;28;20048;-76
2023/03/18 10:11:46;;;;;;;0.10;0.10;;;12.40;67.20;;;;;;5037682;28;20112;-77
2023/03/18 10:14:19;;;;;;;2.15;2.08;;;13.10;67.40;;;;;;5037802;28;20540;-81
2023/03/18 10:16:51;;;;;;;35.25;20.50;;;12.90;67.10;;;;;;5037127;28;20318;-77
2023/03/18 10:19:18;;;;;;;0.10;0.10;;;15.00;68.30;;;;;;5037269;28;20048;-78
2023/03/18 10:22:12;;;;;;;0.20;0.20;;;13.10;69.20;;;;;;5038739;28;20073;-77
2023/03/18 10:25:23;;;;;;;0.57;0.57;;;12.80;63.00;;;;;;5018551;28;20029;-77
2023/03/18 10:28:12;;;;;;;0.17;0.17;;;12.70;63.60;;;;;;5039324;28;20024;-77
2023/03/18 10:30:58;;;;;;;1.38;1.27;;;12.90;64.90;;;;;;5036956;28;20515;-80
2023/03/18 10:33:52;;;;;;;0.10;0.10;;;14.00;66.40;;;;;;5071956;28;20082;-78
2023/03/18 10:36:41;;;;;;;0.10;0.10;;;13.20;64.80;;;;;;5080106;28;20023;-80
2023/03/18 10:39:19;;;;;;;3.00;2.90;;;13.50;63.60;;;;;;5080328;28;20071;-80
2023/03/18 10:41:50;;;;;;;0.68;0.68;;;13.80;64.00;;;;;;5061875;28;20564;-77
2023/03/18 10:44:35;;;;;;;4.60;4.40;;;13.40;60.20;;;;;;5081399;28;20028;-76
2023/03/18 10:47:11;;;;;;;0.63;0.63;;;14.20;61.20;;;;;;5079987;28;20316;-74
2023/03/18 10:49:45;;;;;;;0.50;0.50;;;14.40;61.60;;;;;;5080034;28;20019;-76
2023/03/18 10:52:37;;;;;;;0.20;0.20;;;14.60;61.70;;;;;;5079851;28;20482;-78
2023/03/18 10:55:13;;;;;;;2.97;2.85;;;14.80;59.80;;;;;;5061489;28;20020;-76
2023/03/18 10:57:38;;;;;;;4.80;2.80;;;14.50;60.30;;;;;;5079305;28;20490;-76
2023/03/18 11:00:05;;;;;;;1.50;1.48;;;15.00;58.10;;;;;;5078914;28;20040;-75
2023/03/18 11:02:37;;;;;;;0.40;0.40;;;14.80;57.50;;;;;;5079174;28;20048;-75
2023/03/18 11:05:21;;;;;;;0.22;0.22;;;15.00;58.40;;;;;;5080328;28;20019;-76
2023/03/18 11:07:56;;;;;;;0.20;0.20;;;16.20;57.20;;;;;;5079788;28;20107;-75
2023/03/18 11:10:30;;;;;;;3.45;3.25;;;16.10;57.80;;;;;;5061345;28;20020;-79
2023/03/18 11:13:01;;;;;;;3.78;3.47;;;15.60;57.50;;;;;;5061260;28;20032;-76
2023/03/18 11:15:36;;;;;;;0.30;0.30;;;13.20;56.10;;;;;;5079604;28;20021;-75
2023/03/18 11:18:02;;;;;;;0.10;0.10;;;16.50;57.40;;;;;;5061405;28;20036;-76
2023/03/18 11:20:44;;;;;;;0.73;0.73;;;16.10;56.30;;;;;;5079635;28;20586;-75
2023/03/18 11:23:55;;;;;;;0.20;0.20;;;16.20;57.50;;;;;;5080087;28;20032;-77
2023/03/18 11:26:28;;;;;;;0.30;0.30;;;16.10;57.50;;;;;;5080409;28;20020;-76
2023/03/18 11:28:56;;;;;;;;;;;19.20;59.70;;;;;;5081371;28;20027;-78
2023/03/18 11:31:22;;;;;;;9.07;5.40;;;16.90;58.20;;;;;;5061905;28;19935;-75
2023/03/18 11:33:48;;;;;;;0.28;0.28;;;17.10;58.70;;;;;;5078764;28;20074;-76
2023/03/18 11:36:21;;;;;;;0.32;0.32;;;17.10;55.70;;;;;;5061095;28;20031;-77
2023/03/18 11:39:01;;;;;;;0.10;0.10;;;17.40;57.20;;;;;;5078492;28;20546;-75
2023/03/18 11:41:29;;;;;;;0.10;0.10;;;17.80;56.60;;;;;;5080294;28;20215;-75
2023/03/18 11:44:01;;;;;;;0.10;0.10;;;17.80;55.10;;;;;;5079544;28;20048;-76
2023/03/18 11:46:32;;;;;;;0.20;0.20;;;17.70;53.80;;;;;;5060830;28;20024;-76
2023/03/18 11:48:58;;;;;;;0.35;0.35;;;17.40;54.80;;;;;;5079299;28;20038;-76
2023/03/18 11:51:46;;;;;;;0.68;0.68;;;17.70;55.30;;;;;;5079623;28;20337;-75
2023/03/18 11:54:46;;;;;;;2.28;2.17;;;18.20;54.70;;;;;;5079857;28;20020;-77
2023/03/18 11:57:26;;;;;;;2.85;1.88;;;18.10;53.50;;;;;;5079026;28;20024;-76
2023/03/18 12:00:32;;;;;;;0.13;0.13;;;18.50;54.00;;;;;;5079838;28;20031;-75
2023/03/18 12:03:16;;;;;;;0.13;0.13;;;18.80;53.30;;;;;;5079048;28;20020;-76
2023/03/18 12:06:01;;;;;;;0.32;0.32;;;19.00;53.80;;;;;;5078483;28;20305;-75
2023/03/18 12:08:48;;;;;;;1.02;1.02;;;18.70;53.20;;;;;;5078740;28;20506;-80
2023/03/18 12:11:45;;;;;;;0.10;0.10;;;18.90;55.40;;;;;;5059175;28;20036;-75
2023/03/18 12:14:43;;;;;;;1.65;1.55;;;19.10;52.60;;;;;;5078652;28;20537;-75
2023/03/18 12:17:32;;;;;;;0.20;0.20;;;19.20;52.10;;;;;;5077772;28;20039;-75
2023/03/18 12:20:12;;;;;;;0.65;0.65;;;19.30;51.50;;;;;;5077723;28;20035;-76
2023/03/18 12:22:53;;;;;;;0.50;0.50;;;19.30;51.10;;;;;;5078787;28;20028;-79
2023/03/18 12:25:29;;;;;;;1.65;1.55;;;20.60;52.50;;;;;;5059426;28;20629;-75
2023/03/18 12:28:16;;;;;;;0.15;0.15;;;20.00;51.60;;;;;;5078239;28;20231;-76
2023/03/18 12:30:55;;;;;;;0.30;0.30;;;20.30;50.70;;;;;;5059456;28;20386;-75
2023/03/18 12:33:50;;;;;;;0.20;0.20;;;20.40;50.70;;;;;;5079971;28;20560;-79
2023/03/18 12:36:35;;;;;;;3.40;3.20;;;21.00;50.10;;;;;;5064922;28;20082;-80
2023/03/18 12:39:40;;;;;;;0.82;0.82;;;21.30;50.60;;;;;;5082186;28;20055;-84
2023/03/18 12:42:16;;;;;;;0.55;0.55;;;21.20;48.20;;;;;;5079517;28;20020;-76
2023/03/18 12:45:00;;;;;;;2.20;1.63;;;21.40;47.80;;;;;;5078182;28;20507;-79
2023/03/18 12:47:56;;;;;;;0.43;0.43;;;21.40;46.60;;;;;;5081682;28;20552;-76
2023/03/18 12:50:40;;;;;;;0.10;0.10;;;21.50;46.60;;;;;;5078765;28;20044;-79
2023/03/18 12:53:27;;;;;;;;;;;21.90;46.80;;;;;;5081714;28;20058;-76
2023/03/18 12:56:25;;;;;;;1.00;0.68;;;21.70;46.40;;;;;;5080710;28;19904;-78
2023/03/18 12:59:05;;;;;;;0.22;0.22;;;22.00;46.90;;;;;;5063803;28;20131;-81
2023/03/18 13:01:48;;;;;;;0.22;0.22;;;22.20;46.50;;;;;;5082574;28;20165;-82
2023/03/18 13:04:23;;;;;;;4.20;1.95;;;22.30;45.40;;;;;;5083275;28;20020;-78
2023/03/18 13:06:50;;;;;;;0.30;0.30;;;;;;;;;;5091072;28;20019;-82
2023/03/18 13:09:42;;;;;;;2.50;2.33;;;22.50;44.70;;;;;;5072468;28;20028;-84
2023/03/18 13:12:29;;;;;;;1.75;1.65;;;22.50;44.60;;;;;;5089484;28;20062;-80
2023/03/18 13:15:33;;;;;;;0.10;0.10;;;22.30;43.50;;;;;;5067969;28;20039;-81
2023/03/18 13:18:17;;;;;;;1.15;0.80;;;22.30;43.50;;;;;;5041579;28;20044;-83
2023/03/18 13:20:45;;;;;;;0.32;0.30;;;22.70;43.70;;;;;;5038518;28;20106;-79
2023/03/18 13:23:32;;;;;;;0.80;0.77;;;23.10;44.00;;;;;;5038010;28;20052;-80
2023/03/18 13:26:15;;;;;;;0.47;0.38;;;23.30;42.70;;;;;;5041226;28;20055;-76